sensor_id;sensor_type;location;lat;lon;timestamp;temperature;humidity
1405;DHT22;697;51.114;6.542;2022-10-22T00:01:56;16.20;97.40
1405;DHT22;697;51.114;6.542;2022-10-22T00:04:22;16.20;97.70
1405;DHT22;697;51.114;6.542;2022-10-22T00:06:49;16.20;97.90
1405;DHT22;697;51.114;6.542;2022-10-22T00:09:16;16.20;98.20
1405;DHT22;697;51.114;6.542;2022-10-22T00:11:43;16.20;98.40
1405;DHT22;697;51.114;6.542;2022-10-22T00:14:10;16.20;98.50
1405;DHT22;697;51.114;6.542;2022-10-22T00:16:38;16.20;98.70
1405;DHT22;697;51.114;6.542;2022-10-22T00:19:05;16.20;98.70
1405;DHT22;697;51.114;6.542;2022-10-22T00:21:33;16.20;98.70
1405;DHT22;697;51.114;6.542;2022-10-22T00:24:00;16.30;98.80
1405;DHT22;697;51.114;6.542;2022-10-22T00:26:27;16.30;98.90
1405;DHT22;697;51.114;6.542;2022-10-22T00:28:54;16.30;99.00
1405;DHT22;697;51.114;6.542;2022-10-22T00:31:20;16.30;99.00
1405;DHT22;697;51.114;6.542;2022-10-22T00:33:48;16.30;98.90
1405;DHT22;697;51.114;6.542;2022-10-22T00:36:15;16.30;98.80
1405;DHT22;697;51.114;6.542;2022-10-22T00:38:42;16.30;98.70
1405;DHT22;697;51.114;6.542;2022-10-22T00:41:09;16.30;98.60
1405;DHT22;697;51.114;6.542;2022-10-22T00:43:55;16.30;98.50
1405;DHT22;697;51.114;6.542;2022-10-22T00:46:22;16.30;98.40
1405;DHT22;697;51.114;6.542;2022-10-22T00:48:50;16.20;98.30
1405;DHT22;697;51.114;6.542;2022-10-22T00:51:19;16.20;98.20
1405;DHT22;697;51.114;6.542;2022-10-22T00:53:48;16.20;98.20
1405;DHT22;697;51.114;6.542;2022-10-22T00:56:18;16.20;98.20
1405;DHT22;697;51.114;6.542;2022-10-22T00:58:48;16.20;98.20
1405;DHT22;697;51.114;6.542;2022-10-22T01:01:20;16.20;98.20
1405;DHT22;697;51.114;6.542;2022-10-22T01:03:49;16.20;98.30
1405;DHT22;697;51.114;6.542;2022-10-22T01:06:23;16.20;98.20
1405;DHT22;697;51.114;6.542;2022-10-22T01:08:55;16.20;98.20
1405;DHT22;697;51.114;6.542;2022-10-22T01:11:27;16.10;98.10
1405;DHT22;697;51.114;6.542;2022-10-22T01:13:59;16.10;98.10
1405;DHT22;697;51.114;6.542;2022-10-22T01:16:35;16.10;98.00
1405;DHT22;697;51.114;6.542;2022-10-22T01:19:20;16.10;98.00
1405;DHT22;697;51.114;6.542;2022-10-22T01:21:54;16.10;98.00
1405;DHT22;697;51.114;6.542;2022-10-22T01:24:34;16.00;98.00
1405;DHT22;697;51.114;6.542;2022-10-22T01:27:12;16.00;98.00
1405;DHT22;697;51.114;6.542;2022-10-22T01:29:44;16.00;98.10
1405;DHT22;697;51.114;6.542;2022-10-22T01:32:15;16.00;98.00
1405;DHT22;697;51.114;6.542;2022-10-22T01:34:45;16.00;98.00
1405;DHT22;697;51.114;6.542;2022-10-22T01:37:14;16.00;98.00
1405;DHT22;697;51.114;6.542;2022-10-22T01:39:44;15.90;97.90
1405;DHT22;697;51.114;6.542;2022-10-22T01:42:12;15.90;97.90
1405;DHT22;697;51.114;6.542;2022-10-22T01:44:39;15.90;97.90
1405;DHT22;697;51.114;6.542;2022-10-22T01:47:14;15.80;97.80
1405;DHT22;697;51.114;6.542;2022-10-22T01:49:56;15.90;97.90
1405;DHT22;697;51.114;6.542;2022-10-22T01:52:31;15.90;97.90
1405;DHT22;697;51.114;6.542;2022-10-22T01:55:10;15.80;97.80
1405;DHT22;697;51.114;6.542;2022-10-22T01:57:45;15.80;97.90
1405;DHT22;697;51.114;6.542;2022-10-22T02:00:16;15.80;97.90
1405;DHT22;697;51.114;6.542;2022-10-22T02:02:48;15.80;97.90
1405;DHT22;697;51.114;6.542;2022-10-22T02:05:22;15.80;98.00
1405;DHT22;697;51.114;6.542;2022-10-22T02:07:53;15.70;98.00
1405;DHT22;697;51.114;6.542;2022-10-22T02:10:21;15.70;98.00
1405;DHT22;697;51.114;6.542;2022-10-22T02:12:51;15.70;98.00
1405;DHT22;697;51.114;6.542;2022-10-22T02:15:20;15.70;97.90
1405;DHT22;697;51.114;6.542;2022-10-22T02:17:49;15.70;97.80
1405;DHT22;697;51.114;6.542;2022-10-22T02:20:18;15.70;97.80
1405;DHT22;697;51.114;6.542;2022-10-22T02:22:45;15.60;97.60
1405;DHT22;697;51.114;6.542;2022-10-22T02:25:13;15.60;97.60
1405;DHT22;697;51.114;6.542;2022-10-22T02:27:42;15.60;97.60
1405;DHT22;697;51.114;6.542;2022-10-22T02:30:13;15.60;97.60
1405;DHT22;697;51.114;6.542;2022-10-22T02:32:44;15.60;97.70
1405;DHT22;697;51.114;6.542;2022-10-22T02:35:18;15.50;97.60
1405;DHT22;697;51.114;6.542;2022-10-22T02:37:46;15.50;97.60
1405;DHT22;697;51.114;6.542;2022-10-22T02:40:14;15.50;97.70
1405;DHT22;697;51.114;6.542;2022-10-22T02:42:41;15.50;97.70
1405;DHT22;697;51.114;6.542;2022-10-22T02:45:09;15.50;98.00
1405;DHT22;697;51.114;6.542;2022-10-22T02:47:36;15.50;98.40
1405;DHT22;697;51.114;6.542;2022-10-22T02:50:03;15.50;99.00
1405;DHT22;697;51.114;6.542;2022-10-22T02:52:31;15.50;99.50
1405;DHT22;697;51.114;6.542;2022-10-22T02:54:58;15.50;99.90
1405;DHT22;697;51.114;6.542;2022-10-22T02:57:25;15.50;99.90
1405;DHT22;697;51.114;6.542;2022-10-22T02:59:51;15.50;99.90
1405;DHT22;697;51.114;6.542;2022-10-22T03:02:18;15.50;99.90
1405;DHT22;697;51.114;6.542;2022-10-22T03:04:45;15.50;99.90
1405;DHT22;697;51.114;6.542;2022-10-22T03:07:12;15.50;99.90
1405;DHT22;697;51.114;6.542;2022-10-22T03:09:40;15.60;99.90
1405;DHT22;697;51.114;6.542;2022-10-22T03:12:06;15.60;99.90
1405;DHT22;697;51.114;6.542;2022-10-22T03:14:34;15.50;99.90
1405;DHT22;697;51.114;6.542;2022-10-22T03:17:01;15.60;99.90
1405;DHT22;697;51.114;6.542;2022-10-22T03:19:27;15.60;99.90
1405;DHT22;697;51.114;6.542;2022-10-22T03:21:56;15.60;99.90
1405;DHT22;697;51.114;6.542;2022-10-22T03:24:29;15.60;99.90
1405;DHT22;697;51.114;6.542;2022-10-22T03:26:58;15.60;99.90
1405;DHT22;697;51.114;6.542;2022-10-22T03:29:26;15.60;99.90
1405;DHT22;697;51.114;6.542;2022-10-22T03:31:53;15.60;99.90
1405;DHT22;697;51.114;6.542;2022-10-22T03:34:20;15.60;99.90
1405;DHT22;697;51.114;6.542;2022-10-22T03:36:48;15.60;99.90
1405;DHT22;697;51.114;6.542;2022-10-22T03:39:16;15.60;99.90
1405;DHT22;697;51.114;6.542;2022-10-22T03:41:44;15.60;99.90
1405;DHT22;697;51.114;6.542;2022-10-22T03:44:14;15.60;99.90
1405;DHT22;697;51.114;6.542;2022-10-22T03:46:42;15.60;99.90
1405;DHT22;697;51.114;6.542;2022-10-22T03:49:09;15.60;99.90
1405;DHT22;697;51.114;6.542;2022-10-22T03:51:36;15.60;99.90
1405;DHT22;697;51.114;6.542;2022-10-22T03:54:02;15.60;99.90
1405;DHT22;697;51.114;6.542;2022-10-22T03:56:29;15.60;99.90
1405;DHT22;697;51.114;6.542;2022-10-22T03:58:57;15.70;99.90
1405;DHT22;697;51.114;6.542;2022-10-22T04:01:26;15.70;99.90
1405;DHT22;697;51.114;6.542;2022-10-22T04:03:53;15.70;99.90
1405;DHT22;697;51.114;6.542;2022-10-22T04:06:20;15.70;99.90
1405;DHT22;697;51.114;6.542;2022-10-22T04:08:47;15.70;99.90
1405;DHT22;697;51.114;6.542;2022-10-22T04:11:15;15.70;99.90
1405;DHT22;697;51.114;6.542;2022-10-22T04:13:43;15.70;99.90
1405;DHT22;697;51.114;6.542;2022-10-22T04:16:12;15.70;99.90
1405;DHT22;697;51.114;6.542;2022-10-22T04:18:41;15.80;99.90
1405;DHT22;697;51.114;6.542;2022-10-22T04:21:09;15.80;99.90
1405;DHT22;697;51.114;6.542;2022-10-22T04:23:36;15.80;99.90
1405;DHT22;697;51.114;6.542;2022-10-22T04:26:06;15.80;99.90
1405;DHT22;697;51.114;6.542;2022-10-22T04:28:33;15.80;99.90
1405;DHT22;697;51.114;6.542;2022-10-22T04:31:05;15.80;99.90
1405;DHT22;697;51.114;6.542;2022-10-22T04:33:32;15.80;99.90
1405;DHT22;697;51.114;6.542;2022-10-22T04:36:05;15.80;99.90
1405;DHT22;697;51.114;6.542;2022-10-22T04:38:32;15.70;99.90
1405;DHT22;697;51.114;6.542;2022-10-22T04:41:07;15.70;99.90
1405;DHT22;697;51.114;6.542;2022-10-22T04:43:34;15.70;99.90
1405;DHT22;697;51.114;6.542;2022-10-22T04:46:00;15.70;99.90
1405;DHT22;697;51.114;6.542;2022-10-22T04:48:27;15.70;99.90
1405;DHT22;697;51.114;6.542;2022-10-22T04:50:55;15.70;99.90
1405;DHT22;697;51.114;6.542;2022-10-22T04:53:23;15.60;99.90
1405;DHT22;697;51.114;6.542;2022-10-22T04:55:50;15.60;99.90
1405;DHT22;697;51.114;6.542;2022-10-22T04:58:17;15.60;99.90
1405;DHT22;697;51.114;6.542;2022-10-22T05:00:44;15.60;99.90
1405;DHT22;697;51.114;6.542;2022-10-22T05:03:10;15.60;99.90
1405;DHT22;697;51.114;6.542;2022-10-22T05:05:37;15.60;99.90
1405;DHT22;697;51.114;6.542;2022-10-22T05:08:04;15.60;99.90
1405;DHT22;697;51.114;6.542;2022-10-22T05:10:32;15.60;99.90
1405;DHT22;697;51.114;6.542;2022-10-22T05:12:58;15.60;99.90
1405;DHT22;697;51.114;6.542;2022-10-22T05:15:25;15.60;99.90
1405;DHT22;697;51.114;6.542;2022-10-22T05:17:52;15.60;99.90
1405;DHT22;697;51.114;6.542;2022-10-22T05:20:18;15.60;99.90
1405;DHT22;697;51.114;6.542;2022-10-22T05:22:45;15.60;99.90
1405;DHT22;697;51.114;6.542;2022-10-22T05:25:12;15.60;99.90
1405;DHT22;697;51.114;6.542;2022-10-22T05:27:40;15.60;99.90
1405;DHT22;697;51.114;6.542;2022-10-22T05:30:07;15.60;99.90
1405;DHT22;697;51.114;6.542;2022-10-22T05:32:34;15.60;99.90
1405;DHT22;697;51.114;6.542;2022-10-22T05:35:01;15.60;99.90
1405;DHT22;697;51.114;6.542;2022-10-22T05:37:28;15.60;99.90
1405;DHT22;697;51.114;6.542;2022-10-22T05:39:54;15.60;99.90
1405;DHT22;697;51.114;6.542;2022-10-22T05:42:21;15.50;99.90
1405;DHT22;697;51.114;6.542;2022-10-22T05:44:49;15.60;99.90
1405;DHT22;697;51.114;6.542;2022-10-22T05:47:16;15.60;99.90
1405;DHT22;697;51.114;6.542;2022-10-22T05:49:42;15.60;99.90
1405;DHT22;697;51.114;6.542;2022-10-22T05:52:09;15.60;99.90
1405;DHT22;697;51.114;6.542;2022-10-22T05:54:37;15.50;99.90
1405;DHT22;697;51.114;6.542;2022-10-22T05:57:03;15.60;99.90
1405;DHT22;697;51.114;6.542;2022-10-22T05:59:30;15.60;99.90
1405;DHT22;697;51.114;6.542;2022-10-22T06:01:58;15.60;99.90
1405;DHT22;697;51.114;6.542;2022-10-22T06:04:25;15.60;99.90
1405;DHT22;697;51.114;6.542;2022-10-22T06:06:52;15.60;99.90
1405;DHT22;697;51.114;6.542;2022-10-22T06:09:22;15.70;99.90
1405;DHT22;697;51.114;6.542;2022-10-22T06:11:50;15.60;99.90
1405;DHT22;697;51.114;6.542;2022-10-22T06:14:18;15.60;99.90
1405;DHT22;697;51.114;6.542;2022-10-22T06:16:45;15.60;99.90
1405;DHT22;697;51.114;6.542;2022-10-22T06:19:15;15.50;99.90
1405;DHT22;697;51.114;6.542;2022-10-22T06:21:42;15.60;99.90
1405;DHT22;697;51.114;6.542;2022-10-22T06:24:10;15.60;99.90
1405;DHT22;697;51.114;6.542;2022-10-22T06:26:36;15.60;99.90
1405;DHT22;697;51.114;6.542;2022-10-22T06:29:03;15.60;99.90
1405;DHT22;697;51.114;6.542;2022-10-22T06:31:30;15.60;99.90
1405;DHT22;697;51.114;6.542;2022-10-22T06:34:01;15.60;99.90
1405;DHT22;697;51.114;6.542;2022-10-22T06:36:29;15.60;99.90
1405;DHT22;697;51.114;6.542;2022-10-22T06:38:56;15.60;99.90
1405;DHT22;697;51.114;6.542;2022-10-22T06:41:23;15.60;99.90
1405;DHT22;697;51.114;6.542;2022-10-22T06:43:50;15.70;99.90
1405;DHT22;697;51.114;6.542;2022-10-22T06:46:20;15.70;99.90
1405;DHT22;697;51.114;6.542;2022-10-22T06:48:51;15.70;99.90
1405;DHT22;697;51.114;6.542;2022-10-22T06:51:18;15.80;99.90
1405;DHT22;697;51.114;6.542;2022-10-22T06:53:48;15.80;99.90
1405;DHT22;697;51.114;6.542;2022-10-22T06:56:17;15.90;99.90
1405;DHT22;697;51.114;6.542;2022-10-22T06:58:46;15.90;99.90
1405;DHT22;697;51.114;6.542;2022-10-22T07:01:14;16.00;99.70
1405;DHT22;697;51.114;6.542;2022-10-22T07:03:42;16.10;99.50
1405;DHT22;697;51.114;6.542;2022-10-22T07:06:11;16.20;99.20
1405;DHT22;697;51.114;6.542;2022-10-22T07:08:39;16.20;98.90
1405;DHT22;697;51.114;6.542;2022-10-22T07:11:09;16.20;98.70
1405;DHT22;697;51.114;6.542;2022-10-22T07:13:37;16.20;98.50
1405;DHT22;697;51.114;6.542;2022-10-22T07:16:04;16.30;98.40
1405;DHT22;697;51.114;6.542;2022-10-22T07:18:32;16.30;98.20
1405;DHT22;697;51.114;6.542;2022-10-22T07:20:58;16.30;98.10
1405;DHT22;697;51.114;6.542;2022-10-22T07:23:25;16.30;98.10
1405;DHT22;697;51.114;6.542;2022-10-22T07:25:52;16.30;98.00
1405;DHT22;697;51.114;6.542;2022-10-22T07:28:20;16.30;97.90
1405;DHT22;697;51.114;6.542;2022-10-22T07:30:47;16.30;97.90
1405;DHT22;697;51.114;6.542;2022-10-22T07:33:14;16.40;97.90
1405;DHT22;697;51.114;6.542;2022-10-22T07:35:42;16.30;97.80
1405;DHT22;697;51.114;6.542;2022-10-22T07:38:09;16.30;97.80
1405;DHT22;697;51.114;6.542;2022-10-22T07:40:35;16.40;97.70
1405;DHT22;697;51.114;6.542;2022-10-22T07:43:03;16.40;97.60
1405;DHT22;697;51.114;6.542;2022-10-22T07:45:31;16.40;97.30
1405;DHT22;697;51.114;6.542;2022-10-22T07:47:58;16.40;97.20
1405;DHT22;697;51.114;6.542;2022-10-22T07:50:26;16.50;97.20
1405;DHT22;697;51.114;6.542;2022-10-22T07:52:52;16.50;97.30
1405;DHT22;697;51.114;6.542;2022-10-22T07:55:19;16.50;97.20
1405;DHT22;697;51.114;6.542;2022-10-22T07:57:46;16.50;97.50
1405;DHT22;697;51.114;6.542;2022-10-22T08:00:13;16.60;97.40
1405;DHT22;697;51.114;6.542;2022-10-22T08:02:41;16.60;97.40
1405;DHT22;697;51.114;6.542;2022-10-22T08:05:09;16.80;97.30
1405;DHT22;697;51.114;6.542;2022-10-22T08:07:37;16.80;97.10
1405;DHT22;697;51.114;6.542;2022-10-22T08:10:05;16.80;97.00
1405;DHT22;697;51.114;6.542;2022-10-22T08:12:32;16.90;96.90
1405;DHT22;697;51.114;6.542;2022-10-22T08:14:59;16.90;96.80
1405;DHT22;697;51.114;6.542;2022-10-22T08:17:26;17.00;96.70
1405;DHT22;697;51.114;6.542;2022-10-22T08:19:54;17.10;96.60
1405;DHT22;697;51.114;6.542;2022-10-22T08:22:21;17.20;96.50
1405;DHT22;697;51.114;6.542;2022-10-22T08:24:47;17.20;96.20
1405;DHT22;697;51.114;6.542;2022-10-22T08:27:14;17.30;96.20
1405;DHT22;697;51.114;6.542;2022-10-22T08:29:41;17.30;96.60
1405;DHT22;697;51.114;6.542;2022-10-22T08:32:08;17.40;96.20
1405;DHT22;697;51.114;6.542;2022-10-22T08:34:35;17.40;96.10
1405;DHT22;697;51.114;6.542;2022-10-22T08:37:03;17.50;96.10
1405;DHT22;697;51.114;6.542;2022-10-22T08:39:30;17.60;95.90
1405;DHT22;697;51.114;6.542;2022-10-22T08:42:05;17.60;95.60
1405;DHT22;697;51.114;6.542;2022-10-22T08:44:47;17.60;95.60
1405;DHT22;697;51.114;6.542;2022-10-22T08:47:26;17.60;95.60
1405;DHT22;697;51.114;6.542;2022-10-22T08:49:57;17.60;95.60
1405;DHT22;697;51.114;6.542;2022-10-22T08:52:26;17.60;95.80
1405;DHT22;697;51.114;6.542;2022-10-22T08:54:54;17.60;95.60
1405;DHT22;697;51.114;6.542;2022-10-22T08:57:39;17.60;95.70
1405;DHT22;697;51.114;6.542;2022-10-22T09:00:11;17.60;95.80
1405;DHT22;697;51.114;6.542;2022-10-22T09:02:48;17.80;95.90
1405;DHT22;697;51.114;6.542;2022-10-22T09:05:31;18.00;95.40
1405;DHT22;697;51.114;6.542;2022-10-22T09:08:00;18.20;94.70
1405;DHT22;697;51.114;6.542;2022-10-22T09:10:32;18.30;94.50
1405;DHT22;697;51.114;6.542;2022-10-22T09:13:01;18.40;94.10
1405;DHT22;697;51.114;6.542;2022-10-22T09:15:27;18.40;93.90
1405;DHT22;697;51.114;6.542;2022-10-22T09:18:05;18.50;93.60
1405;DHT22;697;51.114;6.542;2022-10-22T09:20:40;18.50;93.30
1405;DHT22;697;51.114;6.542;2022-10-22T09:23:21;18.50;93.20
1405;DHT22;697;51.114;6.542;2022-10-22T09:25:50;18.50;93.40
1405;DHT22;697;51.114;6.542;2022-10-22T09:28:17;18.50;93.20
1405;DHT22;697;51.114;6.542;2022-10-22T09:30:44;18.50;92.90
1405;DHT22;697;51.114;6.542;2022-10-22T09:33:14;18.60;92.60
1405;DHT22;697;51.114;6.542;2022-10-22T09:35:45;18.60;92.80
1405;DHT22;697;51.114;6.542;2022-10-22T09:38:15;18.60;92.50
1405;DHT22;697;51.114;6.542;2022-10-22T09:40:46;18.60;92.10
1405;DHT22;697;51.114;6.542;2022-10-22T09:43:14;18.60;92.30
1405;DHT22;697;51.114;6.542;2022-10-22T09:45:42;18.60;92.40
1405;DHT22;697;51.114;6.542;2022-10-22T09:48:13;18.60;92.20
1405;DHT22;697;51.114;6.542;2022-10-22T09:50:45;18.60;92.20
1405;DHT22;697;51.114;6.542;2022-10-22T09:53:16;18.70;92.40
1405;DHT22;697;51.114;6.542;2022-10-22T09:55:49;18.70;92.10
1405;DHT22;697;51.114;6.542;2022-10-22T09:58:17;18.70;92.00
1405;DHT22;697;51.114;6.542;2022-10-22T10:00:46;18.80;91.90
1405;DHT22;697;51.114;6.542;2022-10-22T10:03:18;18.80;91.80
1405;DHT22;697;51.114;6.542;2022-10-22T10:05:46;18.90;92.00
1405;DHT22;697;51.114;6.542;2022-10-22T10:08:16;19.00;91.80
1405;DHT22;697;51.114;6.542;2022-10-22T10:10:46;19.00;91.30
1405;DHT22;697;51.114;6.542;2022-10-22T10:13:34;19.00;91.50
1405;DHT22;697;51.114;6.542;2022-10-22T10:16:11;19.00;91.50
1405;DHT22;697;51.114;6.542;2022-10-22T10:18:51;19.00;91.40
1405;DHT22;697;51.114;6.542;2022-10-22T10:21:29;19.10;91.30
1405;DHT22;697;51.114;6.542;2022-10-22T10:24:02;19.10;90.80
1405;DHT22;697;51.114;6.542;2022-10-22T10:26:37;19.10;90.50
1405;DHT22;697;51.114;6.542;2022-10-22T10:29:19;19.10;90.70
1405;DHT22;697;51.114;6.542;2022-10-22T10:32:06;19.10;90.70
1405;DHT22;697;51.114;6.542;2022-10-22T10:34:39;19.00;90.60
1405;DHT22;697;51.114;6.542;2022-10-22T10:37:17;19.00;90.70
1405;DHT22;697;51.114;6.542;2022-10-22T10:40:00;19.00;90.90
1405;DHT22;697;51.114;6.542;2022-10-22T10:42:34;19.00;90.60
1405;DHT22;697;51.114;6.542;2022-10-22T10:45:11;18.90;90.10
1405;DHT22;697;51.114;6.542;2022-10-22T10:47:59;18.90;90.50
1405;DHT22;697;51.114;6.542;2022-10-22T10:50:30;18.90;90.70
1405;DHT22;697;51.114;6.542;2022-10-22T10:53:05;18.80;90.50
1405;DHT22;697;51.114;6.542;2022-10-22T10:55:37;18.80;90.80
1405;DHT22;697;51.114;6.542;2022-10-22T11:01:35;18.80;91.00
1405;DHT22;697;51.114;6.542;2022-10-22T11:04:21;18.80;91.00
1405;DHT22;697;51.114;6.542;2022-10-22T11:06:51;18.80;90.90
1405;DHT22;697;51.114;6.542;2022-10-22T11:09:31;18.90;91.10
1405;DHT22;697;51.114;6.542;2022-10-22T11:12:05;18.90;90.80
1405;DHT22;697;51.114;6.542;2022-10-22T11:14:44;18.90;90.60
1405;DHT22;697;51.114;6.542;2022-10-22T11:17:14;18.90;90.80
1405;DHT22;697;51.114;6.542;2022-10-22T11:19:49;19.00;90.70
1405;DHT22;697;51.114;6.542;2022-10-22T11:22:22;19.00;90.70
1405;DHT22;697;51.114;6.542;2022-10-22T11:24:54;19.10;90.50
1405;DHT22;697;51.114;6.542;2022-10-22T11:27:30;19.20;90.10
1405;DHT22;697;51.114;6.542;2022-10-22T11:30:07;19.30;89.10
1405;DHT22;697;51.114;6.542;2022-10-22T11:32:38;19.30;88.70
1405;DHT22;697;51.114;6.542;2022-10-22T11:35:08;19.30;88.00
1405;DHT22;697;51.114;6.542;2022-10-22T11:37:37;19.40;87.90
1405;DHT22;697;51.114;6.542;2022-10-22T11:40:07;19.60;88.30
1405;DHT22;697;51.114;6.542;2022-10-22T11:42:37;19.70;85.20
1405;DHT22;697;51.114;6.542;2022-10-22T11:45:22;19.80;85.40
1405;DHT22;697;51.114;6.542;2022-10-22T11:47:58;19.90;84.50
1405;DHT22;697;51.114;6.542;2022-10-22T11:50:46;19.90;84.40
1405;DHT22;697;51.114;6.542;2022-10-22T11:53:20;19.80;83.30
1405;DHT22;697;51.114;6.542;2022-10-22T11:55:55;19.80;84.10
1405;DHT22;697;51.114;6.542;2022-10-22T11:58:31;19.80;83.00
1405;DHT22;697;51.114;6.542;2022-10-22T12:01:23;19.80;83.20
1405;DHT22;697;51.114;6.542;2022-10-22T12:03:51;19.80;82.70
1405;DHT22;697;51.114;6.542;2022-10-22T12:06:21;19.90;82.80
1405;DHT22;697;51.114;6.542;2022-10-22T12:08:57;19.90;82.30
1405;DHT22;697;51.114;6.542;2022-10-22T12:11:27;20.00;83.40
1405;DHT22;697;51.114;6.542;2022-10-22T12:14:15;20.00;83.10
1405;DHT22;697;51.114;6.542;2022-10-22T12:16:45;20.00;81.50
1405;DHT22;697;51.114;6.542;2022-10-22T12:19:14;20.10;82.60
1405;DHT22;697;51.114;6.542;2022-10-22T12:21:43;20.10;81.40
1405;DHT22;697;51.114;6.542;2022-10-22T12:24:13;20.20;80.20
1405;DHT22;697;51.114;6.542;2022-10-22T12:26:41;20.20;80.00
1405;DHT22;697;51.114;6.542;2022-10-22T12:29:12;20.30;79.50
1405;DHT22;697;51.114;6.542;2022-10-22T12:31:41;20.40;79.10
1405;DHT22;697;51.114;6.542;2022-10-22T12:34:13;20.60;78.20
1405;DHT22;697;51.114;6.542;2022-10-22T12:36:40;20.70;75.80
1405;DHT22;697;51.114;6.542;2022-10-22T12:39:11;20.90;76.40
1405;DHT22;697;51.114;6.542;2022-10-22T12:41:39;21.20;75.30
1405;DHT22;697;51.114;6.542;2022-10-22T12:44:06;21.80;73.50
1405;DHT22;697;51.114;6.542;2022-10-22T12:46:34;22.70;68.50
1405;DHT22;697;51.114;6.542;2022-10-22T12:49:05;23.60;63.50
1405;DHT22;697;51.114;6.542;2022-10-22T12:51:33;24.50;59.90
1405;DHT22;697;51.114;6.542;2022-10-22T12:54:03;25.50;57.40
1405;DHT22;697;51.114;6.542;2022-10-22T12:56:33;26.40;54.10
1405;DHT22;697;51.114;6.542;2022-10-22T12:59:02;27.10;51.90
1405;DHT22;697;51.114;6.542;2022-10-22T13:01:35;27.60;48.70
1405;DHT22;697;51.114;6.542;2022-10-22T13:04:19;27.60;47.60
1405;DHT22;697;51.114;6.542;2022-10-22T13:06:47;27.30;47.50
1405;DHT22;697;51.114;6.542;2022-10-22T13:09:19;26.90;47.50
1405;DHT22;697;51.114;6.542;2022-10-22T13:11:52;26.50;47.70
1405;DHT22;697;51.114;6.542;2022-10-22T13:14:25;26.00;48.80
1405;DHT22;697;51.114;6.542;2022-10-22T13:17:04;25.40;50.40
1405;DHT22;697;51.114;6.542;2022-10-22T13:19:44;24.90;51.70
1405;DHT22;697;51.114;6.542;2022-10-22T13:22:24;24.30;52.40
1405;DHT22;697;51.114;6.542;2022-10-22T13:24:52;23.70;54.50
1405;DHT22;697;51.114;6.542;2022-10-22T13:27:21;23.30;56.20
1405;DHT22;697;51.114;6.542;2022-10-22T13:29:48;23.00;57.70
1405;DHT22;697;51.114;6.542;2022-10-22T13:32:27;22.60;58.60
1405;DHT22;697;51.114;6.542;2022-10-22T13:34:56;22.50;59.20
1405;DHT22;697;51.114;6.542;2022-10-22T13:37:23;22.40;58.90
1405;DHT22;697;51.114;6.542;2022-10-22T13:39:50;22.40;59.50
1405;DHT22;697;51.114;6.542;2022-10-22T13:42:17;22.30;60.90
1405;DHT22;697;51.114;6.542;2022-10-22T13:44:43;22.30;61.00
1405;DHT22;697;51.114;6.542;2022-10-22T13:47:22;22.10;59.50
1405;DHT22;697;51.114;6.542;2022-10-22T13:49:52;22.00;60.00
1405;DHT22;697;51.114;6.542;2022-10-22T13:52:27;21.80;61.10
1405;DHT22;697;51.114;6.542;2022-10-22T13:54:54;21.70;61.40
1405;DHT22;697;51.114;6.542;2022-10-22T13:57:21;21.70;61.20
1405;DHT22;697;51.114;6.542;2022-10-22T13:59:48;21.80;61.50
1405;DHT22;697;51.114;6.542;2022-10-22T14:02:15;21.90;61.10
1405;DHT22;697;51.114;6.542;2022-10-22T14:04:43;21.90;61.20
1405;DHT22;697;51.114;6.542;2022-10-22T14:07:13;22.10;61.00
1405;DHT22;697;51.114;6.542;2022-10-22T14:09:41;22.20;59.80
1405;DHT22;697;51.114;6.542;2022-10-22T14:12:11;22.30;59.80
1405;DHT22;697;51.114;6.542;2022-10-22T14:14:38;22.20;59.70
1405;DHT22;697;51.114;6.542;2022-10-22T14:17:05;22.40;60.60
1405;DHT22;697;51.114;6.542;2022-10-22T14:19:34;23.00;59.90
1405;DHT22;697;51.114;6.542;2022-10-22T14:22:01;23.60;57.20
1405;DHT22;697;51.114;6.542;2022-10-22T14:24:30;23.90;55.10
1405;DHT22;697;51.114;6.542;2022-10-22T14:26:57;24.10;55.00
1405;DHT22;697;51.114;6.542;2022-10-22T14:29:24;24.30;55.60
1405;DHT22;697;51.114;6.542;2022-10-22T14:31:51;24.00;55.20
1405;DHT22;697;51.114;6.542;2022-10-22T14:34:18;23.60;56.70
1405;DHT22;697;51.114;6.542;2022-10-22T14:36:44;23.50;57.60
1405;DHT22;697;51.114;6.542;2022-10-22T14:39:11;23.60;58.30
1405;DHT22;697;51.114;6.542;2022-10-22T14:41:40;23.80;57.80
1405;DHT22;697;51.114;6.542;2022-10-22T14:44:09;23.90;57.30
1405;DHT22;697;51.114;6.542;2022-10-22T14:46:38;24.20;56.50
1405;DHT22;697;51.114;6.542;2022-10-22T14:49:07;24.50;55.80
1405;DHT22;697;51.114;6.542;2022-10-22T14:51:33;24.60;55.10
1405;DHT22;697;51.114;6.542;2022-10-22T14:54:00;24.60;55.40
1405;DHT22;697;51.114;6.542;2022-10-22T14:59:50;24.20;56.20
1405;DHT22;697;51.114;6.542;2022-10-22T15:02:19;23.90;56.70
1405;DHT22;697;51.114;6.542;2022-10-22T15:04:47;23.70;57.20
1405;DHT22;697;51.114;6.542;2022-10-22T15:10:23;23.20;57.60
1405;DHT22;697;51.114;6.542;2022-10-22T15:12:50;22.90;59.20
1405;DHT22;697;51.114;6.542;2022-10-22T15:15:18;22.60;59.40
1405;DHT22;697;51.114;6.542;2022-10-22T15:17:44;22.30;59.90
1405;DHT22;697;51.114;6.542;2022-10-22T15:20:11;22.10;60.60
1405;DHT22;697;51.114;6.542;2022-10-22T15:22:38;21.90;61.80
1405;DHT22;697;51.114;6.542;2022-10-22T15:25:06;21.70;62.40
1405;DHT22;697;51.114;6.542;2022-10-22T15:27:34;21.60;63.40
1405;DHT22;697;51.114;6.542;2022-10-22T15:30:01;21.50;64.30
1405;DHT22;697;51.114;6.542;2022-10-22T15:32:29;21.30;64.70
1405;DHT22;697;51.114;6.542;2022-10-22T15:34:58;21.20;65.70
1405;DHT22;697;51.114;6.542;2022-10-22T15:37:25;21.10;66.40
1405;DHT22;697;51.114;6.542;2022-10-22T15:39:51;21.00;66.30
1405;DHT22;697;51.114;6.542;2022-10-22T15:42:18;20.90;66.80
1405;DHT22;697;51.114;6.542;2022-10-22T15:44:45;20.80;67.40
1405;DHT22;697;51.114;6.542;2022-10-22T15:47:12;20.70;68.50
1405;DHT22;697;51.114;6.542;2022-10-22T15:49:40;20.60;68.70
1405;DHT22;697;51.114;6.542;2022-10-22T15:52:07;20.50;69.40
1405;DHT22;697;51.114;6.542;2022-10-22T15:54:34;20.50;70.10
1405;DHT22;697;51.114;6.542;2022-10-22T15:57:02;20.40;70.60
1405;DHT22;697;51.114;6.542;2022-10-22T15:59:33;20.30;71.70
1405;DHT22;697;51.114;6.542;2022-10-22T16:02:00;20.30;72.60
1405;DHT22;697;51.114;6.542;2022-10-22T16:04:27;20.20;73.50
1405;DHT22;697;51.114;6.542;2022-10-22T16:06:56;20.20;74.20
1405;DHT22;697;51.114;6.542;2022-10-22T16:09:25;20.10;75.30
1405;DHT22;697;51.114;6.542;2022-10-22T16:11:53;20.00;74.80
1405;DHT22;697;51.114;6.542;2022-10-22T16:14:21;20.00;75.30
1405;DHT22;697;51.114;6.542;2022-10-22T16:16:50;19.90;76.10
1405;DHT22;697;51.114;6.542;2022-10-22T16:19:18;19.90;76.90
1405;DHT22;697;51.114;6.542;2022-10-22T16:21:48;19.80;77.70
1405;DHT22;697;51.114;6.542;2022-10-22T16:24:17;19.70;78.40
1405;DHT22;697;51.114;6.542;2022-10-22T16:26:44;19.60;79.10
1405;DHT22;697;51.114;6.542;2022-10-22T16:29:11;19.50;79.70
1405;DHT22;697;51.114;6.542;2022-10-22T16:31:38;19.40;80.30
1405;DHT22;697;51.114;6.542;2022-10-22T16:34:20;19.40;81.00
1405;DHT22;697;51.114;6.542;2022-10-22T16:36:50;19.30;81.70
1405;DHT22;697;51.114;6.542;2022-10-22T16:39:19;19.20;82.40
1405;DHT22;697;51.114;6.542;2022-10-22T16:41:48;19.20;83.10
1405;DHT22;697;51.114;6.542;2022-10-22T16:44:16;19.10;83.70